Time;durP1;ratioP1;P1;durP2;ratioP2;P2;SDS_P1;SDS_P2;PMS_P1;PMS_P2;Temp;Humidity;BMP_temperature;BMP_pressure;BME280_temperature;BME280_humidity;BME280_pressure;Samples;Min_cycle;Max_cycle;Signal;HPM_P1;HPM_P2
2022/05/16 00:00:59;;;;;;;8.95;4.63;;;22.10;53.90;;;;;;5033531;28;20018;-80
2022/05/16 00:03:25;;;;;;;7.68;4.63;;;22.20;53.70;;;;;;5016026;28;20033;-77
2022/05/16 00:05:52;;;;;;;6.00;4.30;;;22.10;53.80;;;;;;5031407;28;20049;-77
2022/05/16 00:08:17;;;;;;;6.28;4.20;;;22.20;53.90;;;;;;5015224;28;20036;-80
2022/05/16 00:10:43;;;;;;;7.00;4.50;;;22.10;53.80;;;;;;5015814;28;20112;-77
2022/05/16 00:13:09;;;;;;;7.32;4.78;;;21.90;54.10;;;;;;5020984;28;20026;-78
2022/05/16 00:15:35;;;;;;;8.38;4.82;;;21.80;54.30;;;;;;5030181;28;20057;-79
2022/05/16 00:18:02;;;;;;;6.95;4.82;;;22.00;53.80;;;;;;5029241;28;20045;-78
2022/05/16 00:20:28;;;;;;;7.43;5.13;;;22.20;53.40;;;;;;5032847;28;20120;-78
2022/05/16 00:22:53;;;;;;;6.57;4.80;;;21.90;53.60;;;;;;5033478;28;20518;-78
2022/05/16 00:25:20;;;;;;;7.30;4.90;;;22.10;53.80;;;;;;5032116;28;20119;-78
2022/05/16 00:27:45;;;;;;;8.13;4.95;;;22.10;53.50;;;;;;5031099;28;20439;-77
2022/05/16 00:30:16;;;;;;;8.63;5.05;;;22.10;53.50;;;;;;5032237;28;20472;-79
2022/05/16 00:32:41;;;;;;;9.23;5.18;;;22.20;53.20;;;;;;5031832;28;20030;-77
2022/05/16 00:35:10;;;;;;;9.35;4.90;;;21.90;53.60;;;;;;5032400;28;20033;-76
2022/05/16 00:37:36;;;;;;;7.88;5.50;;;21.80;54.40;;;;;;5031552;28;20060;-77
2022/05/16 00:40:02;;;;;;;9.57;5.78;;;21.60;54.20;;;;;;5031756;28;20108;-78
2022/05/16 00:42:28;;;;;;;8.85;5.72;;;21.80;54.00;;;;;;5014123;28;20028;-79
2022/05/16 00:44:54;;;;;;;13.23;5.93;;;21.80;53.90;;;;;;5033255;28;20021;-77
2022/05/16 00:47:20;;;;;;;7.75;5.60;;;21.80;54.10;;;;;;5014143;28;20033;-77
2022/05/16 00:49:49;;;;;;;7.05;5.13;;;21.70;54.10;;;;;;5034109;28;20445;-77
2022/05/16 00:52:16;;;;;;;7.28;5.20;;;21.70;54.70;;;;;;5032555;28;20087;-77
2022/05/16 00:55:24;;;;;;;8.57;5.75;;;21.70;54.60;;;;;;5032520;28;20117;-78
2022/05/16 00:57:55;;;;;;;13.73;5.47;;;21.60;53.90;;;;;;5019710;28;20041;-78
2022/05/16 01:00:33;;;;;;;8.88;5.57;;;21.60;53.90;;;;;;5031566;28;20538;-77
2022/05/16 01:06:06;;;;;;;7.53;5.10;;;21.60;54.20;;;;;;5032516;28;20155;-78
2022/05/16 01:08:34;;;;;;;9.38;5.50;;;21.50;54.80;;;;;;5030707;28;20030;-78
2022/05/16 01:11:08;;;;;;;7.63;5.35;;;21.60;54.10;;;;;;5031977;28;21302;-79
2022/05/16 01:13:34;;;;;;;8.85;5.95;;;21.50;53.90;;;;;;5032317;28;20025;-78
2022/05/16 01:16:02;;;;;;;7.40;5.25;;;21.20;54.20;;;;;;5013937;28;20431;-76
2022/05/16 01:18:28;;;;;;;9.05;6.10;;;20.90;54.70;;;;;;5028741;28;20034;-78
2022/05/16 01:21:16;;;;;;;8.73;6.25;;;19.90;57.70;;;;;;5032467;28;20570;-79
2022/05/16 01:23:54;;;;;;;8.93;5.72;;;19.90;56.90;;;;;;5023250;28;20096;-80
2022/05/16 01:26:24;;;;;;;8.68;5.97;;;20.00;56.60;;;;;;5031694;28;20037;-78
2022/05/16 01:28:52;;;;;;;8.68;6.30;;;20.00;56.50;;;;;;5023576;28;20036;-78
2022/05/16 01:31:17;;;;;;;8.38;6.00;;;20.10;56.20;;;;;;5031099;28;20080;-77
2022/05/16 01:33:43;;;;;;;7.90;5.63;;;20.30;55.60;;;;;;5032449;28;20037;-78
2022/05/16 01:36:09;;;;;;;9.90;6.53;;;20.30;56.10;;;;;;5032543;28;20022;-77
2022/05/16 01:38:35;;;;;;;7.75;5.82;;;20.40;55.60;;;;;;5030479;28;20120;-77
2022/05/16 01:41:02;;;;;;;9.00;5.82;;;20.50;56.10;;;;;;5014909;28;20131;-78
2022/05/16 01:43:32;;;;;;;9.05;6.07;;;20.50;56.10;;;;;;5014214;28;20029;-78
2022/05/16 01:45:57;;;;;;;9.73;5.82;;;20.70;55.60;;;;;;5013809;28;20032;-79
2022/05/16 01:48:23;;;;;;;7.32;5.40;;;20.90;54.80;;;;;;5030545;28;20061;-77
2022/05/16 01:50:50;;;;;;;7.93;5.90;;;20.90;54.70;;;;;;5030934;28;20381;-77
2022/05/16 01:53:18;;;;;;;7.78;5.57;;;20.60;55.60;;;;;;5028177;28;20033;-79
2022/05/16 01:55:43;;;;;;;7.97;5.18;;;20.70;55.70;;;;;;5030380;28;20030;-78
2022/05/16 01:58:09;;;;;;;8.27;5.95;;;20.90;55.10;;;;;;5031653;28;20021;-78
2022/05/16 02:00:36;;;;;;;9.07;5.93;;;20.80;55.00;;;;;;5031165;28;20116;-77
2022/05/16 02:03:05;;;;;;;8.27;5.80;;;20.60;55.80;;;;;;5031934;28;20022;-77
2022/05/16 02:05:32;;;;;;;9.82;6.15;;;20.60;56.10;;;;;;5029748;28;20529;-77
2022/05/16 02:07:57;;;;;;;12.35;5.97;;;20.70;56.40;;;;;;5013968;28;20101;-78
2022/05/16 02:10:25;;;;;;;11.48;6.57;;;20.90;55.70;;;;;;5030252;28;20534;-77
2022/05/16 02:12:52;;;;;;;9.25;6.10;;;20.90;55.50;;;;;;5031753;28;20025;-77
2022/05/16 02:15:21;;;;;;;10.50;6.32;;;20.90;56.10;;;;;;5029844;28;20380;-78
2022/05/16 02:17:47;;;;;;;8.95;5.47;;;20.40;56.50;;;;;;5014520;28;20029;-79
2022/05/16 02:20:13;;;;;;;8.27;5.57;;;20.50;56.20;;;;;;5014388;28;20554;-77
2022/05/16 02:25:24;;;;;;;6.78;5.03;;;20.50;55.60;;;;;;5032975;28;20427;-77
2022/05/16 02:27:51;;;;;;;9.15;5.85;;;20.50;54.60;;;;;;5033715;28;20022;-76
2022/05/16 02:30:20;;;;;;;10.02;5.72;;;20.40;55.10;;;;;;5017771;28;20084;-76
2022/05/16 02:32:46;;;;;;;7.07;4.90;;;20.20;55.50;;;;;;5016940;28;20029;-76
2022/05/16 02:35:11;;;;;;;8.45;5.45;;;20.10;55.40;;;;;;5034194;28;20055;-76
2022/05/16 02:37:37;;;;;;;6.82;4.75;;;20.20;55.30;;;;;;5034549;28;20033;-77
2022/05/16 02:40:05;;;;;;;10.30;5.70;;;20.60;54.30;;;;;;5035080;28;20049;-77
2022/05/16 02:42:31;;;;;;;9.27;5.68;;;20.90;54.00;;;;;;5035509;28;20079;-77
2022/05/16 02:44:56;;;;;;;9.02;5.60;;;20.90;54.10;;;;;;5033618;28;20029;-77
2022/05/16 02:47:23;;;;;;;9.18;5.80;;;21.10;53.80;;;;;;5035138;28;20419;-77
2022/05/16 02:49:50;;;;;;;11.25;5.72;;;20.70;54.30;;;;;;5033655;28;20103;-77
2022/05/16 02:52:16;;;;;;;9.20;5.60;;;20.70;54.30;;;;;;5032657;28;20492;-78
2022/05/16 02:54:42;;;;;;;8.25;6.38;;;21.00;53.70;;;;;;5033542;28;20077;-78
2022/05/16 02:57:08;;;;;;;7.78;5.47;;;21.00;53.60;;;;;;5034543;28;20100;-77
2022/05/16 02:59:36;;;;;;;8.57;5.10;;;21.00;53.70;;;;;;5034347;28;20056;-77
2022/05/16 03:02:05;;;;;;;10.95;6.30;;;20.60;55.00;;;;;;5035405;28;20022;-77
2022/05/16 03:04:31;;;;;;;9.38;5.80;;;20.40;55.90;;;;;;5032640;28;20454;-78
2022/05/16 03:06:57;;;;;;;10.48;5.95;;;20.60;55.60;;;;;;5034111;28;20056;-77
2022/05/16 03:09:25;;;;;;;9.13;6.10;;;20.80;54.80;;;;;;5034343;28;20117;-77
2022/05/16 03:11:52;;;;;;;9.20;5.60;;;20.70;54.90;;;;;;5017044;28;20026;-76
2022/05/16 03:14:18;;;;;;;9.55;5.53;;;20.70;55.20;;;;;;5033873;28;20025;-76
2022/05/16 03:16:44;;;;;;;10.98;5.65;;;20.50;55.60;;;;;;5033833;28;20137;-77
2022/05/16 03:19:11;;;;;;;8.43;6.22;;;20.50;56.00;;;;;;5033562;28;20041;-77
2022/05/16 03:21:36;;;;;;;11.57;5.82;;;20.60;56.00;;;;;;5033877;28;20546;-77
2022/05/16 03:24:02;;;;;;;8.60;6.30;;;20.80;54.70;;;;;;5031949;28;20033;-77
2022/05/16 03:26:28;;;;;;;8.90;7.00;;;20.90;54.30;;;;;;5033435;28;20030;-77
2022/05/16 03:28:54;;;;;;;8.05;6.32;;;20.70;54.60;;;;;;5032705;28;20048;-77
2022/05/16 03:31:19;;;;;;;9.00;6.10;;;20.60;54.90;;;;;;5015048;28;20059;-76
2022/05/16 03:33:45;;;;;;;8.43;6.10;;;20.70;55.10;;;;;;5031369;28;20032;-76
2022/05/16 03:36:11;;;;;;;12.05;6.05;;;20.40;55.80;;;;;;5035067;28;20040;-77
2022/05/16 03:41:22;;;;;;;11.57;7.15;;;20.70;55.50;;;;;;5034208;28;20442;-78
2022/05/16 03:43:49;;;;;;;12.23;7.75;;;20.80;54.80;;;;;;5015274;28;20025;-77
2022/05/16 03:46:15;;;;;;;9.85;6.72;;;20.80;55.30;;;;;;5033556;28;20026;-76
2022/05/16 03:48:41;;;;;;;11.32;6.80;;;20.60;56.00;;;;;;5033190;28;20029;-77
2022/05/16 03:51:08;;;;;;;9.43;6.72;;;20.50;56.80;;;;;;5033475;28;20045;-77
2022/05/16 03:53:36;;;;;;;9.48;6.32;;;20.80;56.40;;;;;;5030364;28;20040;-77
2022/05/16 03:56:03;;;;;;;8.75;6.57;;;21.10;56.00;;;;;;5033403;28;20056;-77
2022/05/16 03:58:29;;;;;;;8.48;6.47;;;21.20;55.80;;;;;;5031698;28;20492;-77
2022/05/16 04:00:54;;;;;;;12.68;7.20;;;21.40;55.90;;;;;;5032854;28;20492;-77
2022/05/16 04:03:20;;;;;;;9.30;6.70;;;21.50;55.30;;;;;;5028552;28;20018;-78
2022/05/16 04:05:46;;;;;;;11.20;6.18;;;21.80;55.10;;;;;;5033066;28;20106;-77
2022/05/16 04:08:12;;;;;;;8.75;6.03;;;21.90;54.70;;;;;;5033959;28;20026;-77
2022/05/16 04:10:37;;;;;;;9.90;6.32;;;22.00;54.20;;;;;;5034982;28;20049;-77
2022/05/16 04:13:03;;;;;;;11.15;6.75;;;22.10;53.90;;;;;;5032552;28;20029;-77
2022/05/16 04:15:29;;;;;;;9.85;7.30;;;22.00;54.10;;;;;;5032230;28;20021;-77
2022/05/16 04:17:54;;;;;;;12.77;6.38;;;22.10;54.30;;;;;;5033073;28;20029;-77
2022/05/16 04:20:21;;;;;;;11.90;6.97;;;22.00;54.50;;;;;;5034573;28;20088;-78
2022/05/16 04:22:47;;;;;;;9.23;7.18;;;21.90;54.70;;;;;;5030740;28;20013;-78
2022/05/16 04:25:16;;;;;;;8.88;6.90;;;21.80;54.90;;;;;;5027156;28;20037;-79
2022/05/16 04:27:42;;;;;;;14.18;7.00;;;21.80;55.10;;;;;;5019099;28;20156;-77
2022/05/16 04:30:09;;;;;;;9.98;6.68;;;21.80;55.10;;;;;;5015144;28;20033;-77
2022/05/16 04:32:35;;;;;;;11.10;7.28;;;22.00;55.00;;;;;;5030849;28;20025;-78
2022/05/16 04:35:01;;;;;;;10.07;6.50;;;22.00;54.60;;;;;;5031491;28;20043;-77
2022/05/16 04:37:32;;;;;;;11.35;6.30;;;22.00;54.10;;;;;;5027161;28;20473;-78
2022/05/16 04:39:58;;;;;;;10.07;6.88;;;22.20;53.90;;;;;;5027692;28;20033;-76
2022/05/16 04:42:43;;;;;;;10.77;6.53;;;22.30;53.70;;;;;;5001840;28;20022;-78
2022/05/16 04:45:20;;;;;;;11.10;6.55;;;22.10;54.30;;;;;;5027952;28;20030;-77
2022/05/16 04:47:51;;;;;;;8.10;6.20;;;21.80;55.30;;;;;;5032103;28;20036;-78
2022/05/16 04:50:20;;;;;;;10.07;6.68;;;22.00;55.10;;;;;;5014580;28;20064;-78
2022/05/16 04:52:46;;;;;;;10.18;6.53;;;22.00;55.80;;;;;;5008771;28;20485;-76
2022/05/16 04:55:12;;;;;;;9.68;6.05;;;22.40;55.30;;;;;;5029951;28;20025;-77
2022/05/16 04:57:39;;;;;;;9.88;5.95;;;22.70;54.60;;;;;;5030507;28;20033;-77
2022/05/16 05:00:05;;;;;;;8.40;6.10;;;22.90;54.30;;;;;;5013957;28;20144;-76
2022/05/16 05:02:31;;;;;;;11.15;5.90;;;23.10;54.20;;;;;;5015075;28;20100;-77
2022/05/16 05:04:56;;;;;;;9.95;5.93;;;23.30;53.90;;;;;;5012649;28;20512;-77
2022/05/16 05:07:23;;;;;;;7.95;5.65;;;23.40;53.40;;;;;;5029365;28;20026;-78
2022/05/16 05:15:18;;;;;;;8.70;5.70;;;23.30;52.10;;;;;;5032129;28;20040;-77
2022/05/16 05:17:44;;;;;;;9.50;5.70;;;23.00;52.70;;;;;;5021123;28;20018;-79
2022/05/16 05:20:13;;;;;;;9.57;5.43;;;23.20;52.90;;;;;;5020302;28;20065;-80
2022/05/16 05:22:47;;;;;;;7.57;5.05;;;23.30;52.60;;;;;;5022933;28;20099;-78
2022/05/16 05:25:17;;;;;;;8.85;5.40;;;23.70;52.10;;;;;;5011589;28;20554;-76
2022/05/16 05:27:44;;;;;;;11.63;5.72;;;23.60;52.10;;;;;;4997873;28;20037;-82
2022/05/16 05:30:16;;;;;;;10.70;6.03;;;23.40;52.70;;;;;;5005745;28;20029;-78
2022/05/16 05:32:45;;;;;;;8.38;5.50;;;23.70;52.10;;;;;;5020993;28;20032;-78
2022/05/16 05:35:11;;;;;;;10.07;5.70;;;23.70;51.80;;;;;;5005113;28;20026;-79
2022/05/16 05:37:37;;;;;;;12.45;6.68;;;23.90;52.20;;;;;;5026379;28;20468;-78
2022/05/16 05:40:06;;;;;;;10.27;6.00;;;24.30;51.50;;;;;;5026728;28;20052;-78
2022/05/16 05:42:32;;;;;;;12.00;6.38;;;23.50;51.70;;;;;;5020773;28;20079;-80
2022/05/16 05:44:59;;;;;;;13.20;6.50;;;23.10;53.40;;;;;;5009299;28;20057;-79
2022/05/16 05:47:25;;;;;;;10.65;5.95;;;23.30;53.60;;;;;;5029858;28;20026;-78
2022/05/16 05:49:51;;;;;;;10.43;6.10;;;23.70;52.20;;;;;;5032360;28;20044;-82
2022/05/16 05:52:17;;;;;;;9.65;5.93;;;23.80;52.10;;;;;;5013766;28;20041;-78
2022/05/16 05:54:44;;;;;;;11.07;5.40;;;24.20;52.30;;;;;;5018073;28;20511;-81
2022/05/16 05:57:10;;;;;;;9.52;5.68;;;24.00;52.40;;;;;;5017886;28;20075;-79
2022/05/16 05:59:36;;;;;;;6.85;5.38;;;24.20;52.20;;;;;;5036506;28;20041;-80
2022/05/16 06:02:03;;;;;;;9.38;5.07;;;23.40;52.80;;;;;;5017799;28;20017;-78
2022/05/16 06:04:28;;;;;;;9.30;5.75;;;23.60;53.30;;;;;;5017540;28;20021;-79
2022/05/16 06:06:54;;;;;;;10.63;5.55;;;23.80;54.10;;;;;;5034299;28;20029;-77
2022/05/16 06:09:19;;;;;;;10.85;5.13;;;24.40;52.90;;;;;;5015445;28;20075;-78
2022/05/16 06:11:46;;;;;;;11.02;5.20;;;24.60;52.80;;;;;;5035186;28;20030;-79
2022/05/16 06:14:11;;;;;;;7.97;4.95;;;24.20;52.50;;;;;;5035368;28;20033;-80
2022/05/16 06:16:37;;;;;;;8.50;5.10;;;24.20;53.00;;;;;;5016389;28;20022;-78
2022/05/16 06:19:03;;;;;;;6.65;5.07;;;24.60;53.30;;;;;;5013699;28;20037;-78
2022/05/16 06:21:34;;;;;;;10.00;5.45;;;24.90;53.20;;;;;;5014870;28;20022;-76
2022/05/16 06:24:00;;;;;;;6.82;4.95;;;24.70;53.90;;;;;;4998415;28;20027;-76
2022/05/16 06:26:25;;;;;;;9.68;5.32;;;25.00;53.20;;;;;;5028888;28;20039;-77
2022/05/16 06:28:51;;;;;;;10.55;4.88;;;25.30;52.70;;;;;;5035052;28;20353;-75
2022/05/16 06:31:17;;;;;;;8.98;5.05;;;25.20;52.10;;;;;;5034754;28;20032;-78
2022/05/16 06:33:46;;;;;;;14.15;4.70;;;24.70;52.90;;;;;;5034577;28;20168;-78
2022/05/16 06:36:13;;;;;;;9.05;4.55;;;24.00;54.20;;;;;;5035686;28;20051;-77
2022/05/16 06:38:39;;;;;;;7.43;4.28;;;24.30;53.00;;;;;;5032737;28;20731;-78
2022/05/16 06:41:05;;;;;;;7.72;4.50;;;24.10;53.20;;;;;;5026637;28;20472;-78
2022/05/16 06:43:31;;;;;;;6.65;4.30;;;23.90;52.20;;;;;;5011551;28;20022;-78
2022/05/16 06:45:58;;;;;;;8.38;4.40;;;23.60;53.90;;;;;;5035367;28;20040;-79
2022/05/16 06:48:24;;;;;;;8.57;4.75;;;24.60;53.10;;;;;;5035604;28;20040;-76
2022/05/16 06:50:50;;;;;;;8.95;4.43;;;24.90;51.90;;;;;;5003473;28;20038;-78
2022/05/16 06:53:27;;;;;;;8.30;4.13;;;25.50;51.10;;;;;;5016059;28;20018;-92
2022/05/16 06:55:54;;;;;;;9.55;4.85;;;26.00;50.10;;;;;;5027585;28;20021;-83
2022/05/16 06:58:19;;;;;;;6.82;4.38;;;26.50;49.90;;;;;;5033697;28;20068;-79
2022/05/16 07:00:46;;;;;;;6.97;4.50;;;27.00;48.40;;;;;;5011691;28;20096;-77
2022/05/16 07:03:12;;;;;;;7.40;4.03;;;26.20;49.80;;;;;;5033147;28;20100;-79
2022/05/16 07:05:38;;;;;;;8.35;3.50;;;26.20;50.20;;;;;;5030503;28;20034;-78
2022/05/16 07:08:05;;;;;;;7.57;3.13;;;26.00;46.20;;;;;;5016829;28;20022;-86
2022/05/16 07:10:31;;;;;;;7.57;3.35;;;25.30;45.70;;;;;;5016994;28;20472;-78
2022/05/16 07:12:57;;;;;;;7.45;3.20;;;24.80;46.40;;;;;;5032885;28;20436;-83
2022/05/16 07:15:23;;;;;;;5.93;3.28;;;24.70;45.80;;;;;;5031875;28;20451;-79
2022/05/16 07:17:49;;;;;;;6.00;3.45;;;24.60;46.90;;;;;;5033812;28;20456;-79
2022/05/16 07:20:15;;;;;;;9.43;3.75;;;25.30;47.60;;;;;;5035385;28;20044;-82
2022/05/16 07:22:43;;;;;;;5.95;3.10;;;26.00;46.10;;;;;;5034726;28;20021;-82
2022/05/16 07:25:09;;;;;;;6.95;3.10;;;25.30;45.90;;;;;;5035393;28;20456;-80
2022/05/16 07:30:19;;;;;;;5.75;3.28;;;25.60;48.00;;;;;;5027850;28;20040;-79
2022/05/16 07:32:46;;;;;;;8.85;3.22;;;26.10;47.20;;;;;;5013067;28;20030;-82
2022/05/16 07:35:15;;;;;;;7.13;3.30;;;26.50;46.60;;;;;;5019343;28;20030;-82
2022/05/16 07:37:41;;;;;;;6.47;3.33;;;26.30;45.90;;;;;;4996919;28;20033;-83
2022/05/16 07:40:09;;;;;;;7.65;3.28;;;25.70;46.70;;;;;;5005067;28;20037;-81
2022/05/16 07:42:39;;;;;;;8.48;3.47;;;26.00;47.40;;;;;;5032883;28;20029;-81
2022/05/16 07:45:06;;;;;;;6.27;3.97;;;26.30;45.60;;;;;;5027899;28;20439;-76
2022/05/16 07:47:32;;;;;;;8.95;3.80;;;25.10;47.50;;;;;;5029851;28;20018;-81
2022/05/16 07:49:59;;;;;;;8.30;3.85;;;24.60;47.30;;;;;;5013127;28;20406;-80
2022/05/16 07:52:26;;;;;;;8.32;3.95;;;24.50;49.50;;;;;;5014880;28;20069;-85
2022/05/16 07:54:52;;;;;;;10.05;3.83;;;25.00;48.00;;;;;;5032889;28;20055;-81
2022/05/16 07:57:18;;;;;;;7.28;3.60;;;25.20;47.50;;;;;;5015800;28;20031;-85
2022/05/16 07:59:46;;;;;;;9.82;3.30;;;25.10;47.70;;;;;;5012194;28;20052;-81
2022/05/16 08:02:13;;;;;;;9.73;3.35;;;25.00;47.80;;;;;;5017222;28;20017;-81
2022/05/16 08:04:39;;;;;;;6.57;3.47;;;25.00;48.90;;;;;;5016870;28;20374;-79
2022/05/16 08:07:06;;;;;;;8.10;3.63;;;25.60;47.20;;;;;;5033361;28;20096;-83
2022/05/16 08:12:36;;;;;;;8.80;3.10;;;26.30;47.30;;;;;;5034081;28;20036;-79
2022/05/16 08:15:05;;;;;;;5.55;3.55;;;26.50;46.90;;;;;;5034632;28;20116;-79
2022/05/16 08:17:31;;;;;;;9.73;3.17;;;26.70;46.30;;;;;;5033828;28;20032;-79
2022/05/16 08:20:00;;;;;;;6.30;3.10;;;27.10;46.60;;;;;;5034185;28;20034;-88
2022/05/16 08:22:32;;;;;;;8.82;3.08;;;27.20;46.30;;;;;;5034578;28;20105;-82
2022/05/16 08:24:58;;;;;;;8.27;3.33;;;27.60;46.00;;;;;;5034843;28;20056;-80
2022/05/16 08:27:24;;;;;;;6.80;3.20;;;27.40;45.90;;;;;;5034199;28;20026;-87
2022/05/16 08:29:50;;;;;;;6.63;3.05;;;27.50;44.90;;;;;;5016685;28;20040;-84
2022/05/16 08:32:19;;;;;;;9.07;3.15;;;27.30;45.50;;;;;;5015942;28;20021;-84
2022/05/16 08:34:46;;;;;;;8.13;3.40;;;27.60;45.40;;;;;;5016193;28;20029;-85
2022/05/16 08:40:10;;;;;;;5.72;2.65;;;27.20;46.00;;;;;;5012196;28;20088;-81
2022/05/16 08:42:47;;;;;;;8.20;3.00;;;27.80;45.60;;;;;;5012107;28;20017;-79
2022/05/16 08:45:38;;;;;;;7.70;2.58;;;28.60;44.60;;;;;;4995464;28;20104;-79
2022/05/16 08:48:11;;;;;;;6.15;2.63;;;28.40;43.30;;;;;;5012747;28;20088;-80
2022/05/16 08:50:41;;;;;;;7.20;2.67;;;27.90;45.00;;;;;;4995413;28;20049;-78
2022/05/16 08:53:13;;;;;;;6.60;2.83;;;27.60;44.50;;;;;;4995400;28;20092;-79
2022/05/16 08:55:42;;;;;;;5.22;2.83;;;27.30;45.30;;;;;;5012030;28;20034;-83
2022/05/16 08:58:37;;;;;;;7.80;2.95;;;27.90;44.30;;;;;;4996311;28;20065;-81
2022/05/16 09:01:07;;;;;;;7.90;2.80;;;28.90;44.00;;;;;;4995260;28;20039;-82
2022/05/16 09:03:39;;;;;;;4.88;2.72;;;29.20;42.50;;;;;;4995664;28;20488;-80
2022/05/16 09:06:15;;;;;;;6.93;2.78;;;29.50;45.30;;;;;;5011348;28;20060;-83
2022/05/16 09:08:49;;;;;;;6.43;2.95;;;30.00;42.50;;;;;;4994967;28;20026;-83
2022/05/16 09:11:27;;;;;;;5.88;2.80;;;30.10;43.20;;;;;;5012753;28;20030;-84
2022/05/16 09:14:03;;;;;;;5.53;2.40;;;29.70;41.80;;;;;;5012011;28;20060;-83
2022/05/16 09:16:47;;;;;;;8.18;2.50;;;28.50;43.10;;;;;;5029413;28;20033;-88
2022/05/16 09:19:34;;;;;;;5.55;2.60;;;28.90;47.40;;;;;;5017157;28;20049;-84
2022/05/16 09:22:11;;;;;;;6.32;2.95;;;29.50;42.70;;;;;;5033366;28;20049;-79
2022/05/16 09:25:09;;;;;;;6.63;2.88;;;28.60;42.30;;;;;;5015781;28;20053;-83
2022/05/16 09:30:25;;;;;;;4.53;2.60;;;28.60;45.70;;;;;;5037583;28;20037;-80
2022/05/16 09:32:57;;;;;;;10.63;2.55;;;29.50;44.30;;;;;;5021363;28;20498;-79
2022/05/16 09:35:31;;;;;;;10.88;2.88;;;29.50;43.60;;;;;;5020033;28;20029;-83
2022/05/16 09:37:58;;;;;;;7.20;2.60;;;29.80;43.30;;;;;;5019295;28;20030;-85
2022/05/16 09:40:37;;;;;;;8.05;2.92;;;29.20;42.70;;;;;;5019461;28;20129;-84
2022/05/16 09:43:20;;;;;;;9.32;2.60;;;29.40;43.80;;;;;;5019866;28;20040;-87
2022/05/16 09:45:58;;;;;;;6.00;2.60;;;29.30;42.20;;;;;;5019070;28;20029;-82
2022/05/16 09:48:24;;;;;;;4.78;2.50;;;29.10;41.50;;;;;;5019580;28;20380;-82
2022/05/16 09:51:03;;;;;;;6.60;2.40;;;28.70;41.70;;;;;;5019022;28;20559;-88
2022/05/16 09:53:38;;;;;;;5.65;2.63;;;29.20;42.80;;;;;;5039120;28;20483;-81
2022/05/16 09:56:09;;;;;;;6.88;3.10;;;29.50;43.40;;;;;;5036630;28;20388;-83
2022/05/16 09:58:48;;;;;;;6.32;2.60;;;29.70;42.70;;;;;;5018611;28;20121;-81
2022/05/16 10:01:39;;;;;;;6.75;2.60;;;30.40;43.20;;;;;;5036467;28;20408;-83
2022/05/16 10:04:21;;;;;;;8.30;2.60;;;30.90;42.90;;;;;;5014705;28;20022;-84
2022/05/16 10:07:02;;;;;;;6.15;2.42;;;30.50;42.10;;;;;;5036482;28;20080;-79
2022/05/16 10:09:37;;;;;;;6.88;3.08;;;29.90;39.70;;;;;;5036426;28;20028;-88
2022/05/16 10:12:09;;;;;;;7.35;2.70;;;29.00;42.00;;;;;;5018388;28;20029;-87
2022/05/16 10:14:37;;;;;;;9.38;2.92;;;28.40;41.20;;;;;;5018996;28;20036;-88
2022/05/16 10:17:05;;;;;;;6.45;2.30;;;29.20;42.10;;;;;;5019751;28;20034;-88
2022/05/16 10:19:32;;;;;;;5.13;2.60;;;29.60;40.80;;;;;;5018677;28;20033;-77
2022/05/16 10:22:17;;;;;;;6.63;2.40;;;29.40;40.40;;;;;;5036592;28;20017;-84
2022/05/16 10:24:52;;;;;;;6.72;2.65;;;29.10;41.60;;;;;;5036550;28;20044;-84
2022/05/16 10:27:31;;;;;;;5.30;2.35;;;29.50;41.10;;;;;;5019338;28;20028;-84
2022/05/16 10:30:00;;;;;;;7.18;2.50;;;30.30;40.90;;;;;;5018401;28;20522;-80
2022/05/16 10:35:28;;;;;;;7.88;2.83;;;31.00;39.40;;;;;;5035937;28;20068;-83
2022/05/16 10:37:58;;;;;;;5.60;2.70;;;29.70;41.60;;;;;;5035931;28;20034;-86
2022/05/16 10:40:50;;;;;;;5.78;2.70;;;29.50;40.70;;;;;;5018036;28;20502;-85
2022/05/16 10:43:30;;;;;;;5.55;2.80;;;29.70;42.30;;;;;;5019274;28;20136;-86
2022/05/16 10:46:24;;;;;;;6.25;2.75;;;30.60;41.90;;;;;;5018263;28;20054;-82
2022/05/16 10:48:58;;;;;;;7.00;2.95;;;31.60;42.30;;;;;;5035565;28;20033;-85
2022/05/16 10:51:42;;;;;;;10.05;2.83;;;31.80;41.30;;;;;;5018793;28;20496;-79
2022/05/16 10:54:20;;;;;;;8.13;3.20;;;32.20;41.20;;;;;;5017903;28;20075;-82
2022/05/16 10:56:53;;;;;;;5.53;2.67;;;32.50;41.30;;;;;;5035851;28;20156;-84
2022/05/16 10:59:28;;;;;;;6.22;2.92;;;32.60;40.80;;;;;;5036043;28;20064;-88
2022/05/16 11:02:04;;;;;;;5.22;2.90;;;32.50;41.80;;;;;;5036500;28;20029;-83
2022/05/16 11:04:56;;;;;;;7.90;3.20;;;32.30;41.70;;;;;;5018085;28;20029;-88
2022/05/16 11:07:48;;;;;;;7.78;3.00;;;32.40;41.80;;;;;;4959131;28;20031;-85
2022/05/16 11:10:19;;;;;;;5.53;2.97;;;32.30;41.60;;;;;;4917267;29;20575;-82
2022/05/16 11:13:22;;;;;;;7.32;3.10;;;32.50;41.10;;;;;;4916978;29;20043;-85
2022/05/16 11:16:05;;;;;;;6.75;2.70;;;32.70;40.90;;;;;;4914338;29;20443;-83
2022/05/16 11:19:12;;;;;;;8.85;2.80;;;32.60;40.10;;;;;;4900658;29;20046;-82
2022/05/16 11:22:05;;;;;;;8.80;3.08;;;32.30;41.00;;;;;;4910656;29;20061;-83
2022/05/16 11:24:53;;;;;;;13.50;5.97;;;32.30;42.20;;;;;;4907902;29;20095;-82
2022/05/16 11:27:52;;;;;;;6.22;3.13;;;32.70;41.50;;;;;;4916422;29;20059;-80
2022/05/16 11:30:30;;;;;;;8.70;3.28;;;32.60;40.90;;;;;;4901069;29;20444;-82
2022/05/16 11:33:39;;;;;;;6.50;2.58;;;32.40;42.30;;;;;;4916876;29;20036;-82
2022/05/16 11:36:19;;;;;;;6.82;3.45;;;32.40;40.50;;;;;;4896867;29;20084;-83
2022/05/16 11:38:47;;;;;;;6.63;3.20;;;32.70;41.70;;;;;;4900909;29;20080;-82
2022/05/16 11:41:13;;;;;;;7.60;3.17;;;33.10;41.80;;;;;;4916574;29;20487;-88
2022/05/16 11:43:47;;;;;;;5.72;2.72;;;33.00;41.70;;;;;;4929599;28;20035;-86
2022/05/16 11:46:31;;;;;;;6.68;2.90;;;32.80;41.90;;;;;;4979257;28;20031;-89
2022/05/16 11:49:24;;;;;;;8.50;3.00;;;32.50;41.50;;;;;;5016944;28;20431;-89
2022/05/16 11:52:13;;;;;;;6.75;3.30;;;32.30;41.10;;;;;;5016299;28;20107;-83
2022/05/16 11:54:44;;;;;;;5.60;2.78;;;32.60;43.10;;;;;;5034671;28;20042;-82
2022/05/16 12:00:34;;;;;;;7.32;2.85;;;33.00;40.60;;;;;;5034525;28;20530;-83
2022/05/16 12:03:06;;;;;;;9.10;3.20;;;32.40;41.20;;;;;;5016584;28;20080;-83
2022/05/16 12:05:46;;;;;;;6.55;3.40;;;32.60;42.50;;;;;;5016803;28;20025;-83
2022/05/16 12:08:31;;;;;;;5.90;2.90;;;32.70;41.10;;;;;;5035593;28;20068;-82
2022/05/16 12:11:03;;;;;;;6.72;2.88;;;32.70;40.30;;;;;;5017487;28;20030;-86
2022/05/16 12:14:10;;;;;;;5.43;2.85;;;32.10;41.20;;;;;;5016540;28;20025;-83
2022/05/16 12:16:54;;;;;;;7.38;2.88;;;31.90;41.00;;;;;;5034252;28;20391;-85
2022/05/16 12:19:31;;;;;;;7.20;2.92;;;31.10;41.70;;;;;;5033728;28;20038;-83
2022/05/16 12:22:31;;;;;;;9.00;3.90;;;30.10;43.40;;;;;;5016213;28;20021;-81
2022/05/16 12:25:01;;;;;;;7.50;4.82;;;30.70;43.60;;;;;;5012619;28;20033;-82
2022/05/16 12:27:31;;;;;;;5.70;3.22;;;31.90;43.10;;;;;;5034009;28;20025;-82
2022/05/16 12:30:01;;;;;;;6.10;2.93;;;32.50;42.50;;;;;;5033524;28;20083;-82
2022/05/16 12:32:30;;;;;;;7.40;4.35;;;32.80;41.40;;;;;;5016066;28;20120;-83
2022/05/16 12:34:59;;;;;;;7.47;3.30;;;33.10;41.40;;;;;;5033485;28;20029;-81
2022/05/16 12:37:25;;;;;;;5.53;2.90;;;33.10;42.80;;;;;;5034426;28;20026;-83
2022/05/16 12:40:13;;;;;;;6.05;3.20;;;32.90;41.80;;;;;;5015974;28;20038;-82
2022/05/16 12:43:03;;;;;;;5.65;2.90;;;33.10;41.70;;;;;;5033530;28;20407;-79
2022/05/16 12:45:32;;;;;;;9.80;3.10;;;33.30;42.10;;;;;;5033557;28;20354;-78
2022/05/16 12:48:25;;;;;;;5.83;3.30;;;33.40;41.70;;;;;;5016130;28;20025;-81
2022/05/16 12:51:14;;;;;;;6.22;2.80;;;33.50;41.90;;;;;;5015492;28;20030;-83
2022/05/16 12:54:09;;;;;;;5.95;3.00;;;33.70;41.10;;;;;;5033655;28;20029;-81
2022/05/16 12:56:48;;;;;;;6.75;2.75;;;33.50;40.90;;;;;;5034383;28;20030;-82
2022/05/16 12:59:24;;;;;;;5.72;2.88;;;32.80;41.40;;;;;;5033113;28;20033;-80
2022/05/16 13:01:54;;;;;;;5.28;3.05;;;32.70;42.70;;;;;;5033941;28;20041;-82
2022/05/16 13:04:23;;;;;;;6.63;3.25;;;33.00;42.30;;;;;;5033822;28;20041;-77
2022/05/16 13:07:03;;;;;;;8.73;3.38;;;33.20;41.40;;;;;;5033840;28;20021;-79
2022/05/16 13:09:54;;;;;;;5.75;2.90;;;33.60;41.30;;;;;;5015825;28;20025;-83
2022/05/16 13:12:34;;;;;;;6.60;2.90;;;33.50;41.20;;;;;;5032944;28;20025;-80
2022/05/16 13:15:06;;;;;;;;;;;33.60;41.40;;;;;;5015532;28;20024;-83
2022/05/16 13:17:39;;;;;;;5.15;3.08;;;33.30;41.00;;;;;;5015141;28;19988;-82
2022/05/16 13:20:15;;;;;;;9.30;5.55;;;33.00;41.50;;;;;;5015578;28;20091;-86
2022/05/16 13:22:43;;;;;;;8.13;4.10;;;33.00;41.60;;;;;;5016272;28;20083;-88
2022/05/16 13:25:11;;;;;;;5.55;3.40;;;32.80;42.40;;;;;;5032889;28;20112;-86
2022/05/16 13:30:23;;;;;;;7.00;3.45;;;33.00;42.60;;;;;;5033601;28;20103;-79
2022/05/16 13:32:51;;;;;;;9.60;3.88;;;33.20;42.40;;;;;;5033471;28;20053;-91
2022/05/16 13:35:36;;;;;;;5.78;2.88;;;33.20;41.70;;;;;;5015723;28;20025;-82
2022/05/16 13:38:05;;;;;;;10.23;5.45;;;33.30;41.70;;;;;;5034715;28;20005;-83
2022/05/16 13:40:39;;;;;;;6.75;3.65;;;33.20;42.90;;;;;;5015175;28;20511;-82